sensor_id;sensor_type;location;lat;lon;timestamp;pressure;altitude;pressure_sealevel;temperature;humidity
26859;BME280;14429;48.346;16.338;2023-03-18T00:01:29;99690.69;;;9.94;39.99
26859;BME280;14429;48.346;16.338;2023-03-18T00:03:54;99690.09;;;10.03;38.00
26859;BME280;14429;48.346;16.338;2023-03-18T00:06:20;99695.38;;;9.91;39.34
26859;BME280;14429;48.346;16.338;2023-03-18T00:08:47;99695.78;;;9.71;38.13
26859;BME280;14429;48.346;16.338;2023-03-18T00:11:14;99695.97;;;9.68;37.20
26859;BME280;14429;48.346;16.338;2023-03-18T00:13:40;99699.31;;;9.97;37.98
26859;BME280;14429;48.346;16.338;2023-03-18T00:16:09;99686.09;;;9.44;39.56
26859;BME280;14429;48.346;16.338;2023-03-18T00:18:36;99681.66;;;9.96;40.68
26859;BME280;14429;48.346;16.338;2023-03-18T00:21:01;99688.69;;;9.32;37.03
26859;BME280;14429;48.346;16.338;2023-03-18T00:23:27;99684.84;;;10.01;39.85
26859;BME280;14429;48.346;16.338;2023-03-18T00:25:54;99690.75;;;9.41;39.33
26859;BME280;14429;48.346;16.338;2023-03-18T00:28:20;99689.88;;;9.80;39.95
26859;BME280;14429;48.346;16.338;2023-03-18T00:30:45;99684.22;;;9.18;37.02
26859;BME280;14429;48.346;16.338;2023-03-18T00:33:12;99680.47;;;9.48;38.40
26859;BME280;14429;48.346;16.338;2023-03-18T00:35:38;99687.63;;;9.60;40.24
26859;BME280;14429;48.346;16.338;2023-03-18T00:38:04;99686.22;;;9.29;40.23
26859;BME280;14429;48.346;16.338;2023-03-18T00:40:30;99680.28;;;9.38;40.39
26859;BME280;14429;48.346;16.338;2023-03-18T00:42:55;99680.22;;;9.25;41.44
26859;BME280;14429;48.346;16.338;2023-03-18T00:45:21;99672.09;;;9.54;40.70
26859;BME280;14429;48.346;16.338;2023-03-18T00:47:46;99668.97;;;9.48;38.32
26859;BME280;14429;48.346;16.338;2023-03-18T00:50:13;99676.72;;;9.65;40.96
26859;BME280;14429;48.346;16.338;2023-03-18T00:52:39;99682.78;;;9.27;37.21
26859;BME280;14429;48.346;16.338;2023-03-18T00:55:05;99666.16;;;9.63;38.45
26859;BME280;14429;48.346;16.338;2023-03-18T00:57:31;99666.47;;;9.59;39.05
26859;BME280;14429;48.346;16.338;2023-03-18T00:59:57;99664.22;;;9.13;37.19
26859;BME280;14429;48.346;16.338;2023-03-18T01:02:22;99668.28;;;9.58;40.69
26859;BME280;14429;48.346;16.338;2023-03-18T01:04:48;99666.50;;;9.05;37.39
26859;BME280;14429;48.346;16.338;2023-03-18T01:07:15;99669.88;;;9.87;40.79
26859;BME280;14429;48.346;16.338;2023-03-18T01:09:40;99665.09;;;10.30;40.09
26859;BME280;14429;48.346;16.338;2023-03-18T01:12:07;99661.13;;;9.85;40.91
26859;BME280;14429;48.346;16.338;2023-03-18T01:14:33;99677.09;;;9.19;39.73
26859;BME280;14429;48.346;16.338;2023-03-18T01:16:58;99671.34;;;8.99;37.65
26859;BME280;14429;48.346;16.338;2023-03-18T01:19:24;99665.47;;;9.47;36.68
26859;BME280;14429;48.346;16.338;2023-03-18T01:21:49;99658.31;;;9.88;40.72
26859;BME280;14429;48.346;16.338;2023-03-18T01:24:16;99649.94;;;9.54;40.92
26859;BME280;14429;48.346;16.338;2023-03-18T01:26:42;99651.59;;;9.42;38.66
26859;BME280;14429;48.346;16.338;2023-03-18T01:29:07;99647.69;;;9.48;39.85
26859;BME280;14429;48.346;16.338;2023-03-18T01:31:32;99657.81;;;9.55;36.89
26859;BME280;14429;48.346;16.338;2023-03-18T01:33:58;99649.16;;;9.66;40.56
26859;BME280;14429;48.346;16.338;2023-03-18T01:36:23;99655.88;;;9.05;38.49
26859;BME280;14429;48.346;16.338;2023-03-18T01:38:49;99656.56;;;9.35;38.50
26859;BME280;14429;48.346;16.338;2023-03-18T01:41:16;99648.06;;;9.94;39.27
26859;BME280;14429;48.346;16.338;2023-03-18T01:43:42;99650.25;;;9.10;36.83
26859;BME280;14429;48.346;16.338;2023-03-18T01:46:41;99651.13;;;9.36;40.05
26859;BME280;14429;48.346;16.338;2023-03-18T01:49:10;99649.66;;;9.58;39.83
26859;BME280;14429;48.346;16.338;2023-03-18T01:51:37;99657.13;;;9.40;39.50
26859;BME280;14429;48.346;16.338;2023-03-18T01:54:04;99644.78;;;9.39;37.62
26859;BME280;14429;48.346;16.338;2023-03-18T01:56:33;99645.66;;;9.51;37.00
26859;BME280;14429;48.346;16.338;2023-03-18T01:58:59;99630.91;;;9.34;39.15
26859;BME280;14429;48.346;16.338;2023-03-18T02:01:27;99650.38;;;9.60;39.67
26859;BME280;14429;48.346;16.338;2023-03-18T02:03:53;99654.81;;;9.99;40.22
26859;BME280;14429;48.346;16.338;2023-03-18T02:06:19;99655.94;;;9.17;36.94
26859;BME280;14429;48.346;16.338;2023-03-18T02:08:45;99655.91;;;9.31;38.08
26859;BME280;14429;48.346;16.338;2023-03-18T02:11:11;99664.19;;;9.79;40.43
26859;BME280;14429;48.346;16.338;2023-03-18T02:13:41;99680.09;;;9.41;37.77
26859;BME280;14429;48.346;16.338;2023-03-18T02:16:12;99692.13;;;8.92;39.86
26859;BME280;14429;48.346;16.338;2023-03-18T02:18:42;99687.00;;;9.17;40.30
26859;BME280;14429;48.346;16.338;2023-03-18T02:21:18;99678.44;;;9.12;38.70
26859;BME280;14429;48.346;16.338;2023-03-18T02:23:51;99682.28;;;8.94;39.87
26859;BME280;14429;48.346;16.338;2023-03-18T02:26:23;99673.91;;;9.00;39.31
26859;BME280;14429;48.346;16.338;2023-03-18T02:28:55;99681.50;;;9.20;38.79
26859;BME280;14429;48.346;16.338;2023-03-18T02:31:23;99683.66;;;9.27;40.16
26859;BME280;14429;48.346;16.338;2023-03-18T02:33:49;99674.97;;;8.98;40.41
26859;BME280;14429;48.346;16.338;2023-03-18T02:36:18;99679.81;;;9.05;38.71
26859;BME280;14429;48.346;16.338;2023-03-18T02:38:44;99672.38;;;9.10;37.88
26859;BME280;14429;48.346;16.338;2023-03-18T02:41:14;99671.34;;;9.13;39.21
26859;BME280;14429;48.346;16.338;2023-03-18T02:43:40;99682.25;;;9.08;39.54
26859;BME280;14429;48.346;16.338;2023-03-18T02:46:26;99676.75;;;8.70;39.19
26859;BME280;14429;48.346;16.338;2023-03-18T02:48:52;99677.31;;;9.02;41.82
26859;BME280;14429;48.346;16.338;2023-03-18T02:51:18;99688.50;;;8.38;38.53
26859;BME280;14429;48.346;16.338;2023-03-18T02:53:44;99666.06;;;9.39;39.70
26859;BME280;14429;48.346;16.338;2023-03-18T02:56:09;99688.72;;;8.90;41.29
26859;BME280;14429;48.346;16.338;2023-03-18T02:58:35;99685.84;;;9.07;41.59
26859;BME280;14429;48.346;16.338;2023-03-18T03:01:01;99697.56;;;8.91;40.40
26859;BME280;14429;48.346;16.338;2023-03-18T03:03:28;99688.97;;;9.27;41.31
26859;BME280;14429;48.346;16.338;2023-03-18T03:05:54;99693.94;;;8.78;37.84
26859;BME280;14429;48.346;16.338;2023-03-18T03:08:20;99711.31;;;8.97;38.44
26859;BME280;14429;48.346;16.338;2023-03-18T03:10:45;99693.50;;;9.39;40.55
26859;BME280;14429;48.346;16.338;2023-03-18T03:13:11;99698.69;;;9.54;39.69
26859;BME280;14429;48.346;16.338;2023-03-18T03:15:38;99698.97;;;9.10;38.73
26859;BME280;14429;48.346;16.338;2023-03-18T03:18:04;99708.56;;;8.99;39.12
26859;BME280;14429;48.346;16.338;2023-03-18T03:20:32;99713.41;;;8.65;39.23
26859;BME280;14429;48.346;16.338;2023-03-18T03:22:57;99728.16;;;8.55;39.12
26859;BME280;14429;48.346;16.338;2023-03-18T03:25:23;99720.63;;;9.18;39.47
26859;BME280;14429;48.346;16.338;2023-03-18T03:27:48;99729.56;;;9.17;41.26
26859;BME280;14429;48.346;16.338;2023-03-18T03:30:14;99741.50;;;8.69;39.59
26859;BME280;14429;48.346;16.338;2023-03-18T03:32:40;99737.44;;;8.48;41.52
26859;BME280;14429;48.346;16.338;2023-03-18T03:35:06;99743.41;;;8.94;42.12
26859;BME280;14429;48.346;16.338;2023-03-18T03:37:33;99771.84;;;8.07;39.88
26859;BME280;14429;48.346;16.338;2023-03-18T03:39:59;99765.28;;;8.28;39.33
26859;BME280;14429;48.346;16.338;2023-03-18T03:42:24;99766.53;;;8.79;39.62
26859;BME280;14429;48.346;16.338;2023-03-18T03:44:50;99760.19;;;8.81;40.88
26859;BME280;14429;48.346;16.338;2023-03-18T03:47:15;99759.53;;;9.19;40.85
26859;BME280;14429;48.346;16.338;2023-03-18T03:49:40;99765.25;;;9.13;39.31
26859;BME280;14429;48.346;16.338;2023-03-18T03:52:06;99763.38;;;9.01;40.49
26859;BME280;14429;48.346;16.338;2023-03-18T03:54:33;99774.00;;;9.01;40.35
26859;BME280;14429;48.346;16.338;2023-03-18T03:56:58;99777.38;;;8.76;38.83
26859;BME280;14429;48.346;16.338;2023-03-18T03:59:24;99781.94;;;8.16;39.54
26859;BME280;14429;48.346;16.338;2023-03-18T04:01:49;99771.19;;;8.33;39.42
26859;BME280;14429;48.346;16.338;2023-03-18T04:04:14;99775.69;;;8.88;41.58
26859;BME280;14429;48.346;16.338;2023-03-18T04:06:40;99778.09;;;8.50;41.29
26859;BME280;14429;48.346;16.338;2023-03-18T04:09:05;99787.47;;;8.56;40.25
26859;BME280;14429;48.346;16.338;2023-03-18T04:11:32;99780.25;;;8.87;39.72
26859;BME280;14429;48.346;16.338;2023-03-18T04:13:58;99786.81;;;8.23;39.84
26859;BME280;14429;48.346;16.338;2023-03-18T04:16:24;99785.47;;;8.45;40.75
26859;BME280;14429;48.346;16.338;2023-03-18T04:18:50;99792.28;;;8.78;39.72
26859;BME280;14429;48.346;16.338;2023-03-18T04:21:15;99802.75;;;8.52;39.88
26859;BME280;14429;48.346;16.338;2023-03-18T04:23:41;99791.19;;;9.37;41.10
26859;BME280;14429;48.346;16.338;2023-03-18T04:26:06;99795.47;;;9.40;40.21
26859;BME280;14429;48.346;16.338;2023-03-18T04:28:33;99808.47;;;7.85;40.33
26859;BME280;14429;48.346;16.338;2023-03-18T04:30:58;99805.03;;;8.87;42.31
26859;BME280;14429;48.346;16.338;2023-03-18T04:33:24;99804.09;;;9.02;40.74
26859;BME280;14429;48.346;16.338;2023-03-18T04:35:49;99809.69;;;8.10;42.33
26859;BME280;14429;48.346;16.338;2023-03-18T04:38:15;99803.47;;;8.69;41.38
26859;BME280;14429;48.346;16.338;2023-03-18T04:40:40;99797.34;;;8.83;41.08
26859;BME280;14429;48.346;16.338;2023-03-18T04:43:06;99794.69;;;8.96;41.92
26859;BME280;14429;48.346;16.338;2023-03-18T04:45:33;99794.50;;;9.54;40.29
26859;BME280;14429;48.346;16.338;2023-03-18T04:47:58;99801.91;;;8.94;40.57
26859;BME280;14429;48.346;16.338;2023-03-18T04:50:23;99810.19;;;8.75;40.08
26859;BME280;14429;48.346;16.338;2023-03-18T04:52:49;99812.19;;;9.28;39.89
26859;BME280;14429;48.346;16.338;2023-03-18T04:55:14;99816.16;;;8.35;39.38
26859;BME280;14429;48.346;16.338;2023-03-18T04:57:40;99798.66;;;8.89;41.97
26859;BME280;14429;48.346;16.338;2023-03-18T05:00:08;99813.50;;;8.35;40.01
26859;BME280;14429;48.346;16.338;2023-03-18T05:02:35;99805.22;;;8.55;39.78
26859;BME280;14429;48.346;16.338;2023-03-18T05:05:01;99804.41;;;8.39;39.90
26859;BME280;14429;48.346;16.338;2023-03-18T05:07:26;99808.63;;;9.00;39.66
26859;BME280;14429;48.346;16.338;2023-03-18T05:09:52;99800.50;;;9.30;40.97
26859;BME280;14429;48.346;16.338;2023-03-18T05:12:17;99810.47;;;9.41;40.70
26859;BME280;14429;48.346;16.338;2023-03-18T05:14:43;99807.78;;;9.27;38.72
26859;BME280;14429;48.346;16.338;2023-03-18T05:17:10;99813.66;;;9.04;38.99
26859;BME280;14429;48.346;16.338;2023-03-18T05:19:37;99810.84;;;9.07;40.08
26859;BME280;14429;48.346;16.338;2023-03-18T05:22:02;99805.25;;;9.25;40.90
26859;BME280;14429;48.346;16.338;2023-03-18T05:24:28;99810.84;;;9.21;41.15
26859;BME280;14429;48.346;16.338;2023-03-18T05:26:53;99824.16;;;8.64;40.81
26859;BME280;14429;48.346;16.338;2023-03-18T05:29:19;99817.63;;;7.95;40.57
26859;BME280;14429;48.346;16.338;2023-03-18T05:31:44;99824.09;;;8.07;40.02
26859;BME280;14429;48.346;16.338;2023-03-18T05:34:10;99820.44;;;8.67;41.46
26859;BME280;14429;48.346;16.338;2023-03-18T05:36:37;99825.50;;;8.71;42.89
26859;BME280;14429;48.346;16.338;2023-03-18T05:39:03;99836.16;;;8.12;40.80
26859;BME280;14429;48.346;16.338;2023-03-18T05:41:28;99833.53;;;8.70;41.47
26859;BME280;14429;48.346;16.338;2023-03-18T05:43:53;99818.31;;;9.01;41.99
26859;BME280;14429;48.346;16.338;2023-03-18T05:46:19;99827.50;;;8.82;41.40
26859;BME280;14429;48.346;16.338;2023-03-18T05:48:44;99830.38;;;8.92;39.66
26859;BME280;14429;48.346;16.338;2023-03-18T05:51:10;99828.09;;;7.98;40.80
26859;BME280;14429;48.346;16.338;2023-03-18T05:53:37;99817.84;;;8.94;41.17
26859;BME280;14429;48.346;16.338;2023-03-18T05:56:02;99820.81;;;8.17;40.28
26859;BME280;14429;48.346;16.338;2023-03-18T05:58:28;99825.53;;;8.56;40.49
26859;BME280;14429;48.346;16.338;2023-03-18T06:00:53;99845.53;;;8.77;41.13
26859;BME280;14429;48.346;16.338;2023-03-18T06:03:18;99839.13;;;8.36;40.35
26859;BME280;14429;48.346;16.338;2023-03-18T06:05:44;99833.66;;;8.82;40.94
26859;BME280;14429;48.346;16.338;2023-03-18T06:08:09;99830.22;;;9.23;39.09
26859;BME280;14429;48.346;16.338;2023-03-18T06:10:36;99842.31;;;9.28;39.67
26859;BME280;14429;48.346;16.338;2023-03-18T06:13:01;99845.53;;;8.48;39.56
26859;BME280;14429;48.346;16.338;2023-03-18T06:15:27;99837.09;;;8.84;40.70
26859;BME280;14429;48.346;16.338;2023-03-18T06:17:52;99846.47;;;8.47;40.05
26859;BME280;14429;48.346;16.338;2023-03-18T06:20:18;99839.44;;;9.17;41.53
26859;BME280;14429;48.346;16.338;2023-03-18T06:22:44;99842.81;;;8.63;42.05
26859;BME280;14429;48.346;16.338;2023-03-18T06:25:10;99837.88;;;8.57;39.42
26859;BME280;14429;48.346;16.338;2023-03-18T06:27:37;99839.06;;;8.52;41.67
26859;BME280;14429;48.346;16.338;2023-03-18T06:30:03;99842.66;;;8.66;41.17
26859;BME280;14429;48.346;16.338;2023-03-18T06:32:29;99846.75;;;8.71;42.15
26859;BME280;14429;48.346;16.338;2023-03-18T06:34:54;99846.31;;;8.92;41.04
26859;BME280;14429;48.346;16.338;2023-03-18T06:37:20;99851.53;;;8.80;40.08
26859;BME280;14429;48.346;16.338;2023-03-18T06:39:45;99848.59;;;8.85;41.18
26859;BME280;14429;48.346;16.338;2023-03-18T06:42:11;99852.38;;;8.81;39.82
26859;BME280;14429;48.346;16.338;2023-03-18T06:44:38;99853.94;;;9.12;41.48
26859;BME280;14429;48.346;16.338;2023-03-18T06:47:03;99855.09;;;9.08;39.58
26859;BME280;14429;48.346;16.338;2023-03-18T06:49:28;99866.66;;;8.64;40.40
26859;BME280;14429;48.346;16.338;2023-03-18T06:51:54;99872.16;;;8.61;40.20
26859;BME280;14429;48.346;16.338;2023-03-18T06:54:19;99867.41;;;8.07;40.59
26859;BME280;14429;48.346;16.338;2023-03-18T06:56:45;99871.09;;;8.20;41.05
26859;BME280;14429;48.346;16.338;2023-03-18T06:59:10;99869.31;;;8.20;40.76
26859;BME280;14429;48.346;16.338;2023-03-18T07:01:37;99861.81;;;8.71;41.06
26859;BME280;14429;48.346;16.338;2023-03-18T07:04:03;99856.28;;;9.32;41.05
26859;BME280;14429;48.346;16.338;2023-03-18T07:06:29;99862.00;;;9.53;39.08
26859;BME280;14429;48.346;16.338;2023-03-18T07:08:54;99856.28;;;9.73;40.17
26859;BME280;14429;48.346;16.338;2023-03-18T07:11:19;99860.44;;;9.49;39.06
26859;BME280;14429;48.346;16.338;2023-03-18T07:13:45;99865.97;;;9.33;39.17
26859;BME280;14429;48.346;16.338;2023-03-18T07:16:10;99864.75;;;8.95;39.28
26859;BME280;14429;48.346;16.338;2023-03-18T07:18:37;99859.72;;;9.61;40.43
26859;BME280;14429;48.346;16.338;2023-03-18T07:21:03;99863.34;;;9.88;39.39
26859;BME280;14429;48.346;16.338;2023-03-18T07:23:28;99859.34;;;9.95;39.11
26859;BME280;14429;48.346;16.338;2023-03-18T07:25:54;99855.91;;;9.93;37.74
26859;BME280;14429;48.346;16.338;2023-03-18T07:28:19;99867.59;;;10.30;37.14
26859;BME280;14429;48.346;16.338;2023-03-18T07:30:45;99857.88;;;10.43;37.90
26859;BME280;14429;48.346;16.338;2023-03-18T07:33:10;99871.13;;;10.56;37.08
26859;BME280;14429;48.346;16.338;2023-03-18T07:35:37;99866.00;;;10.53;37.58
26859;BME280;14429;48.346;16.338;2023-03-18T07:38:02;99870.75;;;10.62;38.10
26859;BME280;14429;48.346;16.338;2023-03-18T07:40:28;99873.78;;;10.56;36.83
26859;BME280;14429;48.346;16.338;2023-03-18T07:42:53;99877.47;;;10.42;37.99
26859;BME280;14429;48.346;16.338;2023-03-18T07:45:19;99869.13;;;10.34;37.20
26859;BME280;14429;48.346;16.338;2023-03-18T07:47:44;99873.22;;;10.65;36.82
26859;BME280;14429;48.346;16.338;2023-03-18T07:50:10;99884.53;;;10.69;37.06
26859;BME280;14429;48.346;16.338;2023-03-18T07:52:37;99876.34;;;10.84;37.79
26859;BME280;14429;48.346;16.338;2023-03-18T07:55:03;99884.88;;;10.77;36.10
26859;BME280;14429;48.346;16.338;2023-03-18T07:57:29;99880.63;;;10.86;37.30
26859;BME280;14429;48.346;16.338;2023-03-18T07:59:54;99877.91;;;10.74;37.56
26859;BME280;14429;48.346;16.338;2023-03-18T08:02:20;99884.75;;;10.78;36.68
26859;BME280;14429;48.346;16.338;2023-03-18T08:04:45;99889.81;;;10.95;36.90
26859;BME280;14429;48.346;16.338;2023-03-18T08:07:10;99885.56;;;10.92;36.94
26859;BME280;14429;48.346;16.338;2023-03-18T08:09:37;99891.09;;;10.89;36.79
26859;BME280;14429;48.346;16.338;2023-03-18T08:12:03;99892.69;;;10.92;36.77
26859;BME280;14429;48.346;16.338;2023-03-18T08:14:29;99890.63;;;10.83;36.78
26859;BME280;14429;48.346;16.338;2023-03-18T08:16:54;99882.22;;;10.89;35.91
26859;BME280;14429;48.346;16.338;2023-03-18T08:19:19;99893.25;;;10.97;36.21
26859;BME280;14429;48.346;16.338;2023-03-18T08:21:45;99884.47;;;10.95;35.85
26859;BME280;14429;48.346;16.338;2023-03-18T08:24:11;99891.97;;;11.02;35.96
26859;BME280;14429;48.346;16.338;2023-03-18T08:26:38;99900.84;;;11.03;37.08
26859;BME280;14429;48.346;16.338;2023-03-18T08:29:03;99898.19;;;11.15;35.41
26859;BME280;14429;48.346;16.338;2023-03-18T08:31:29;99904.50;;;11.26;36.80
26859;BME280;14429;48.346;16.338;2023-03-18T08:33:56;99906.09;;;11.16;35.61
26859;BME280;14429;48.346;16.338;2023-03-18T08:36:22;99900.53;;;11.19;35.50
26859;BME280;14429;48.346;16.338;2023-03-18T08:38:48;99899.56;;;11.20;34.75
26859;BME280;14429;48.346;16.338;2023-03-18T08:41:13;99894.56;;;11.16;36.39
26859;BME280;14429;48.346;16.338;2023-03-18T08:43:40;99901.72;;;11.15;35.69
26859;BME280;14429;48.346;16.338;2023-03-18T08:46:05;99904.69;;;10.99;34.98
26859;BME280;14429;48.346;16.338;2023-03-18T08:48:31;99893.03;;;11.00;34.99
26859;BME280;14429;48.346;16.338;2023-03-18T08:50:56;99904.31;;;10.91;35.01
26859;BME280;14429;48.346;16.338;2023-03-18T08:53:22;99905.00;;;11.06;34.97
26859;BME280;14429;48.346;16.338;2023-03-18T08:55:47;99904.38;;;11.28;36.90
26859;BME280;14429;48.346;16.338;2023-03-18T08:58:13;99900.56;;;11.31;35.84
26859;BME280;14429;48.346;16.338;2023-03-18T09:00:40;99897.59;;;11.36;35.42
26859;BME280;14429;48.346;16.338;2023-03-18T09:03:06;99895.69;;;11.38;36.06
26859;BME280;14429;48.346;16.338;2023-03-18T09:05:31;99890.59;;;11.47;35.70
26859;BME280;14429;48.346;16.338;2023-03-18T09:07:58;99891.41;;;11.72;34.24
26859;BME280;14429;48.346;16.338;2023-03-18T09:10:23;99888.44;;;11.77;35.13
26859;BME280;14429;48.346;16.338;2023-03-18T09:12:49;99876.56;;;11.93;35.06
26859;BME280;14429;48.346;16.338;2023-03-18T09:15:16;99879.88;;;11.96;33.87
26859;BME280;14429;48.346;16.338;2023-03-18T09:17:43;99877.88;;;12.23;34.18
26859;BME280;14429;48.346;16.338;2023-03-18T09:20:10;99885.59;;;12.15;33.74
26859;BME280;14429;48.346;16.338;2023-03-18T09:22:36;99879.31;;;12.04;34.97
26859;BME280;14429;48.346;16.338;2023-03-18T09:25:03;99875.53;;;12.18;34.72
26859;BME280;14429;48.346;16.338;2023-03-18T09:27:28;99873.09;;;12.15;34.40
26859;BME280;14429;48.346;16.338;2023-03-18T09:29:54;99888.41;;;12.01;33.73
26859;BME280;14429;48.346;16.338;2023-03-18T09:32:19;99879.28;;;12.16;34.01
26859;BME280;14429;48.346;16.338;2023-03-18T09:34:46;99875.97;;;12.12;34.86
26859;BME280;14429;48.346;16.338;2023-03-18T09:37:11;99883.41;;;12.32;34.34
26859;BME280;14429;48.346;16.338;2023-03-18T09:39:37;99885.41;;;12.41;33.54
26859;BME280;14429;48.346;16.338;2023-03-18T09:42:13;99887.25;;;12.28;34.37
26859;BME280;14429;48.346;16.338;2023-03-18T09:44:53;99879.16;;;12.30;34.20
26859;BME280;14429;48.346;16.338;2023-03-18T09:47:34;99883.66;;;12.29;34.69
26859;BME280;14429;48.346;16.338;2023-03-18T09:50:17;99873.59;;;12.20;34.45
26859;BME280;14429;48.346;16.338;2023-03-18T09:52:47;99875.22;;;12.46;33.42
26859;BME280;14429;48.346;16.338;2023-03-18T09:55:20;99890.69;;;12.30;34.21
26859;BME280;14429;48.346;16.338;2023-03-18T09:57:50;99877.03;;;12.22;34.66
26859;BME280;14429;48.346;16.338;2023-03-18T10:00:19;99883.47;;;12.08;33.80
26859;BME280;14429;48.346;16.338;2023-03-18T10:02:49;99873.47;;;12.34;33.22
26859;BME280;14429;48.346;16.338;2023-03-18T10:05:22;99892.09;;;12.23;33.70
26859;BME280;14429;48.346;16.338;2023-03-18T10:07:51;99881.44;;;11.99;33.89
26859;BME280;14429;48.346;16.338;2023-03-18T10:10:22;99874.63;;;11.95;34.02
26859;BME280;14429;48.346;16.338;2023-03-18T10:12:51;99874.28;;;12.12;33.66
26859;BME280;14429;48.346;16.338;2023-03-18T10:15:22;99875.63;;;12.29;33.53
26859;BME280;14429;48.346;16.338;2023-03-18T10:17:53;99873.53;;;12.45;33.45
26859;BME280;14429;48.346;16.338;2023-03-18T10:20:28;99867.28;;;12.57;33.50
26859;BME280;14429;48.346;16.338;2023-03-18T10:23:08;99859.09;;;12.70;32.99
26859;BME280;14429;48.346;16.338;2023-03-18T10:25:38;99870.72;;;12.69;33.13
26859;BME280;14429;48.346;16.338;2023-03-18T10:31:14;99880.31;;;12.61;32.97
26859;BME280;14429;48.346;16.338;2023-03-18T10:33:45;99867.09;;;12.47;33.72
26859;BME280;14429;48.346;16.338;2023-03-18T10:36:18;99877.06;;;12.68;33.56
26859;BME280;14429;48.346;16.338;2023-03-18T10:38:45;99866.81;;;12.75;33.31
26859;BME280;14429;48.346;16.338;2023-03-18T10:41:16;99868.75;;;12.61;33.54
26859;BME280;14429;48.346;16.338;2023-03-18T10:43:45;99872.63;;;12.57;33.46
26859;BME280;14429;48.346;16.338;2023-03-18T10:46:14;99866.31;;;12.81;33.21
26859;BME280;14429;48.346;16.338;2023-03-18T10:48:42;99864.63;;;12.80;32.88
26859;BME280;14429;48.346;16.338;2023-03-18T10:51:15;99874.78;;;12.52;33.48
26859;BME280;14429;48.346;16.338;2023-03-18T10:53:47;99862.16;;;12.54;33.60
26859;BME280;14429;48.346;16.338;2023-03-18T10:56:16;99863.06;;;12.88;33.31
26859;BME280;14429;48.346;16.338;2023-03-18T10:58:41;99862.84;;;12.91;33.24
26859;BME280;14429;48.346;16.338;2023-03-18T11:01:08;99860.13;;;13.03;33.32
26859;BME280;14429;48.346;16.338;2023-03-18T11:03:38;99867.97;;;12.94;33.33
26859;BME280;14429;48.346;16.338;2023-03-18T11:06:14;99869.13;;;12.79;33.35
26859;BME280;14429;48.346;16.338;2023-03-18T11:08:46;99855.44;;;12.71;33.49
26859;BME280;14429;48.346;16.338;2023-03-18T11:11:20;99860.75;;;13.18;33.15
26859;BME280;14429;48.346;16.338;2023-03-18T11:13:48;99857.09;;;13.08;33.27
26859;BME280;14429;48.346;16.338;2023-03-18T11:16:24;99856.00;;;13.21;33.02
26859;BME280;14429;48.346;16.338;2023-03-18T11:18:51;99848.31;;;13.06;33.34
26859;BME280;14429;48.346;16.338;2023-03-18T11:21:16;99850.59;;;13.33;33.51
26859;BME280;14429;48.346;16.338;2023-03-18T11:23:51;99844.63;;;13.51;32.92
26859;BME280;14429;48.346;16.338;2023-03-18T11:26:20;99843.00;;;13.27;33.11
26859;BME280;14429;48.346;16.338;2023-03-18T11:28:46;99838.56;;;13.49;33.06
26859;BME280;14429;48.346;16.338;2023-03-18T11:31:15;99822.84;;;13.45;32.60
26859;BME280;14429;48.346;16.338;2023-03-18T11:33:41;99841.97;;;13.41;32.72
26859;BME280;14429;48.346;16.338;2023-03-18T11:36:08;99832.72;;;13.45;32.68
26859;BME280;14429;48.346;16.338;2023-03-18T11:38:37;99827.22;;;13.35;32.35
26859;BME280;14429;48.346;16.338;2023-03-18T11:41:10;99830.09;;;13.21;32.97
26859;BME280;14429;48.346;16.338;2023-03-18T11:43:37;99816.16;;;13.50;32.72
26859;BME280;14429;48.346;16.338;2023-03-18T11:46:04;99810.66;;;13.30;33.01
26859;BME280;14429;48.346;16.338;2023-03-18T11:48:33;99815.28;;;13.50;32.81
26859;BME280;14429;48.346;16.338;2023-03-18T11:51:05;99812.84;;;13.36;32.93
26859;BME280;14429;48.346;16.338;2023-03-18T11:53:42;99808.94;;;13.40;32.91
26859;BME280;14429;48.346;16.338;2023-03-18T11:56:22;99812.63;;;13.61;32.77
26859;BME280;14429;48.346;16.338;2023-03-18T11:59:14;99802.88;;;13.60;32.78
26859;BME280;14429;48.346;16.338;2023-03-18T12:01:49;99823.69;;;13.46;32.86
26859;BME280;14429;48.346;16.338;2023-03-18T12:04:28;99809.22;;;13.48;32.83
26859;BME280;14429;48.346;16.338;2023-03-18T12:07:14;99801.44;;;13.67;32.80
26859;BME280;14429;48.346;16.338;2023-03-18T12:09:48;99794.84;;;13.60;32.92
26859;BME280;14429;48.346;16.338;2023-03-18T12:12:31;99801.91;;;13.61;32.84
26859;BME280;14429;48.346;16.338;2023-03-18T12:15:10;99797.78;;;13.68;32.83
26859;BME280;14429;48.346;16.338;2023-03-18T12:17:50;99786.53;;;13.73;32.92
26859;BME280;14429;48.346;16.338;2023-03-18T12:20:33;99784.47;;;13.88;32.84
26859;BME280;14429;48.346;16.338;2023-03-18T12:23:02;99777.19;;;14.01;32.99
26859;BME280;14429;48.346;16.338;2023-03-18T12:25:48;99777.06;;;14.02;32.77
26859;BME280;14429;48.346;16.338;2023-03-18T12:28:27;99774.34;;;14.13;32.71
26859;BME280;14429;48.346;16.338;2023-03-18T12:31:05;99766.56;;;14.10;32.98
26859;BME280;14429;48.346;16.338;2023-03-18T12:33:45;99773.59;;;14.22;32.90
26859;BME280;14429;48.346;16.338;2023-03-18T12:36:21;99773.56;;;14.32;32.62
26859;BME280;14429;48.346;16.338;2023-03-18T12:39:10;99752.78;;;14.03;33.61
26859;BME280;14429;48.346;16.338;2023-03-18T12:41:47;99770.16;;;14.30;32.97
26859;BME280;14429;48.346;16.338;2023-03-18T12:44:29;99768.56;;;14.28;33.28
26859;BME280;14429;48.346;16.338;2023-03-18T12:47:04;99759.22;;;14.23;33.04
26859;BME280;14429;48.346;16.338;2023-03-18T12:49:32;99752.69;;;13.94;33.36
26859;BME280;14429;48.346;16.338;2023-03-18T12:52:03;99751.66;;;14.17;33.27
26859;BME280;14429;48.346;16.338;2023-03-18T12:54:35;99766.56;;;13.99;33.64
26859;BME280;14429;48.346;16.338;2023-03-18T12:57:06;99762.19;;;13.87;33.82
26859;BME280;14429;48.346;16.338;2023-03-18T12:59:39;99761.31;;;14.08;33.43
26859;BME280;14429;48.346;16.338;2023-03-18T13:02:18;99761.97;;;14.32;33.32